sensor_id;sensor_type;location;lat;lon;timestamp;P1;durP1;ratioP1;P2;durP2;ratioP2
63046;SDS011;62025;39.238;9.126;2023-02-22T00:00:58;46.03;;;30.73;;
63046;SDS011;62025;39.238;9.126;2023-02-22T00:03:31;46.15;;;30.08;;
63046;SDS011;62025;39.238;9.126;2023-02-22T00:05:59;41.42;;;28.83;;
63046;SDS011;62025;39.238;9.126;2023-02-22T00:08:29;40.78;;;28.85;;
63046;SDS011;62025;39.238;9.126;2023-02-22T00:10:59;45.67;;;28.85;;
63046;SDS011;62025;39.238;9.126;2023-02-22T00:13:34;45.83;;;29.00;;
63046;SDS011;62025;39.238;9.126;2023-02-22T00:16:02;41.92;;;28.13;;
63046;SDS011;62025;39.238;9.126;2023-02-22T00:18:29;40.00;;;27.30;;
63046;SDS011;62025;39.238;9.126;2023-02-22T00:20:55;38.50;;;27.80;;
63046;SDS011;62025;39.238;9.126;2023-02-22T00:23:26;44.20;;;27.00;;
63046;SDS011;62025;39.238;9.126;2023-02-22T00:25:54;41.75;;;26.85;;
63046;SDS011;62025;39.238;9.126;2023-02-22T00:28:22;41.72;;;27.70;;
63046;SDS011;62025;39.238;9.126;2023-02-22T00:30:49;38.35;;;26.27;;
63046;SDS011;62025;39.238;9.126;2023-02-22T00:33:19;37.33;;;25.05;;
63046;SDS011;62025;39.238;9.126;2023-02-22T00:35:45;42.38;;;26.45;;
63046;SDS011;62025;39.238;9.126;2023-02-22T00:38:12;38.50;;;26.40;;
63046;SDS011;62025;39.238;9.126;2023-02-22T00:40:42;38.58;;;26.85;;
63046;SDS011;62025;39.238;9.126;2023-02-22T00:43:09;36.88;;;26.02;;
63046;SDS011;62025;39.238;9.126;2023-02-22T00:45:35;38.47;;;27.02;;
63046;SDS011;62025;39.238;9.126;2023-02-22T00:48:03;48.40;;;27.90;;
63046;SDS011;62025;39.238;9.126;2023-02-22T00:50:30;38.72;;;27.15;;
63046;SDS011;62025;39.238;9.126;2023-02-22T00:52:58;39.17;;;27.42;;
63046;SDS011;62025;39.238;9.126;2023-02-22T00:55:27;38.92;;;26.90;;
63046;SDS011;62025;39.238;9.126;2023-02-22T00:57:56;44.03;;;26.98;;
63046;SDS011;62025;39.238;9.126;2023-02-22T01:00:25;43.30;;;27.63;;
63046;SDS011;62025;39.238;9.126;2023-02-22T01:03:04;42.50;;;27.92;;
63046;SDS011;62025;39.238;9.126;2023-02-22T01:05:33;40.95;;;28.05;;
63046;SDS011;62025;39.238;9.126;2023-02-22T01:08:00;42.22;;;27.85;;
63046;SDS011;62025;39.238;9.126;2023-02-22T01:10:28;42.47;;;27.15;;
63046;SDS011;62025;39.238;9.126;2023-02-22T01:12:57;42.90;;;28.67;;
63046;SDS011;62025;39.238;9.126;2023-02-22T01:15:25;39.93;;;26.63;;
63046;SDS011;62025;39.238;9.126;2023-02-22T01:17:55;39.47;;;26.30;;
63046;SDS011;62025;39.238;9.126;2023-02-22T01:20:24;39.70;;;26.83;;
63046;SDS011;62025;39.238;9.126;2023-02-22T01:22:52;47.45;;;27.85;;
63046;SDS011;62025;39.238;9.126;2023-02-22T01:25:22;37.58;;;26.60;;
63046;SDS011;62025;39.238;9.126;2023-02-22T01:27:54;44.00;;;28.15;;
63046;SDS011;62025;39.238;9.126;2023-02-22T01:30:22;38.03;;;27.05;;
63046;SDS011;62025;39.238;9.126;2023-02-22T01:32:55;38.10;;;26.23;;
63046;SDS011;62025;39.238;9.126;2023-02-22T01:35:23;44.08;;;27.17;;
63046;SDS011;62025;39.238;9.126;2023-02-22T01:37:56;35.60;;;25.67;;
63046;SDS011;62025;39.238;9.126;2023-02-22T01:40:24;39.42;;;26.13;;
63046;SDS011;62025;39.238;9.126;2023-02-22T01:42:56;36.75;;;25.45;;
63046;SDS011;62025;39.238;9.126;2023-02-22T01:48:06;36.55;;;25.48;;
63046;SDS011;62025;39.238;9.126;2023-02-22T01:50:45;34.58;;;24.13;;
63046;SDS011;62025;39.238;9.126;2023-02-22T01:53:27;36.28;;;24.13;;
63046;SDS011;62025;39.238;9.126;2023-02-22T01:55:59;36.50;;;24.48;;
63046;SDS011;62025;39.238;9.126;2023-02-22T01:58:27;32.60;;;23.52;;
63046;SDS011;62025;39.238;9.126;2023-02-22T02:00:57;34.10;;;22.77;;
63046;SDS011;62025;39.238;9.126;2023-02-22T02:03:25;38.50;;;24.35;;
63046;SDS011;62025;39.238;9.126;2023-02-22T02:05:55;40.05;;;24.58;;
63046;SDS011;62025;39.238;9.126;2023-02-22T02:11:11;42.95;;;22.75;;
63046;SDS011;62025;39.238;9.126;2023-02-22T02:13:38;43.50;;;22.33;;
63046;SDS011;62025;39.238;9.126;2023-02-22T02:16:04;52.58;;;23.90;;
63046;SDS011;62025;39.238;9.126;2023-02-22T02:18:30;50.33;;;22.58;;
63046;SDS011;62025;39.238;9.126;2023-02-22T02:24:01;52.00;;;22.80;;
63046;SDS011;62025;39.238;9.126;2023-02-22T02:27:20;49.22;;;21.75;;
63046;SDS011;62025;39.238;9.126;2023-02-22T02:33:30;54.10;;;21.98;;
63046;SDS011;62025;39.238;9.126;2023-02-22T02:36:07;52.75;;;22.08;;
63046;SDS011;62025;39.238;9.126;2023-02-22T02:41:47;61.25;;;22.38;;
63046;SDS011;62025;39.238;9.126;2023-02-22T02:49:35;47.97;;;20.00;;
63046;SDS011;62025;39.238;9.126;2023-02-22T02:52:07;58.47;;;20.95;;
63046;SDS011;62025;39.238;9.126;2023-02-22T02:54:36;50.95;;;20.40;;
63046;SDS011;62025;39.238;9.126;2023-02-22T02:57:04;54.67;;;22.00;;
63046;SDS011;62025;39.238;9.126;2023-02-22T02:59:32;49.40;;;19.92;;
63046;SDS011;62025;39.238;9.126;2023-02-22T03:11:08;55.55;;;21.10;;
63046;SDS011;62025;39.238;9.126;2023-02-22T03:16:47;50.53;;;19.40;;
63046;SDS011;62025;39.238;9.126;2023-02-22T03:21:50;49.65;;;19.35;;
63046;SDS011;62025;39.238;9.126;2023-02-22T03:24:32;49.72;;;19.08;;
63046;SDS011;62025;39.238;9.126;2023-02-22T03:29:45;49.70;;;19.95;;
63046;SDS011;62025;39.238;9.126;2023-02-22T03:32:19;49.22;;;19.25;;
63046;SDS011;62025;39.238;9.126;2023-02-22T03:34:51;41.03;;;17.20;;
63046;SDS011;62025;39.238;9.126;2023-02-22T03:37:29;45.90;;;18.33;;
63046;SDS011;62025;39.238;9.126;2023-02-22T03:40:00;47.45;;;19.15;;
63046;SDS011;62025;39.238;9.126;2023-02-22T03:42:47;41.13;;;17.25;;
63046;SDS011;62025;39.238;9.126;2023-02-22T03:45:27;36.22;;;15.35;;
63046;SDS011;62025;39.238;9.126;2023-02-22T03:48:14;35.50;;;15.27;;
63046;SDS011;62025;39.238;9.126;2023-02-22T03:50:43;33.35;;;15.25;;
63046;SDS011;62025;39.238;9.126;2023-02-22T03:53:10;33.05;;;14.50;;
63046;SDS011;62025;39.238;9.126;2023-02-22T03:55:39;34.25;;;15.45;;
63046;SDS011;62025;39.238;9.126;2023-02-22T03:58:06;26.38;;;13.50;;
63046;SDS011;62025;39.238;9.126;2023-02-22T04:00:37;24.38;;;12.52;;
63046;SDS011;62025;39.238;9.126;2023-02-22T04:03:03;26.17;;;13.35;;
63046;SDS011;62025;39.238;9.126;2023-02-22T04:05:29;27.10;;;12.23;;
63046;SDS011;62025;39.238;9.126;2023-02-22T04:07:56;26.52;;;13.18;;
63046;SDS011;62025;39.238;9.126;2023-02-22T04:10:24;27.10;;;13.15;;
63046;SDS011;62025;39.238;9.126;2023-02-22T04:12:51;25.25;;;12.77;;
63046;SDS011;62025;39.238;9.126;2023-02-22T04:15:20;25.80;;;13.00;;
63046;SDS011;62025;39.238;9.126;2023-02-22T04:17:50;26.17;;;13.10;;
63046;SDS011;62025;39.238;9.126;2023-02-22T04:20:19;24.27;;;12.77;;
63046;SDS011;62025;39.238;9.126;2023-02-22T04:23:05;24.27;;;12.90;;
63046;SDS011;62025;39.238;9.126;2023-02-22T04:25:31;24.75;;;12.68;;
63046;SDS011;62025;39.238;9.126;2023-02-22T04:28:09;24.33;;;12.05;;
63046;SDS011;62025;39.238;9.126;2023-02-22T04:30:42;25.90;;;12.73;;
63046;SDS011;62025;39.238;9.126;2023-02-22T04:33:12;26.50;;;13.68;;
63046;SDS011;62025;39.238;9.126;2023-02-22T04:35:39;25.45;;;12.65;;
63046;SDS011;62025;39.238;9.126;2023-02-22T04:38:05;27.65;;;13.65;;
63046;SDS011;62025;39.238;9.126;2023-02-22T04:40:33;30.63;;;15.33;;
63046;SDS011;62025;39.238;9.126;2023-02-22T04:42:59;33.15;;;16.08;;
63046;SDS011;62025;39.238;9.126;2023-02-22T04:45:26;32.03;;;15.68;;
63046;SDS011;62025;39.238;9.126;2023-02-22T04:47:53;28.38;;;14.73;;
63046;SDS011;62025;39.238;9.126;2023-02-22T04:50:19;31.52;;;15.57;;
63046;SDS011;62025;39.238;9.126;2023-02-22T04:52:45;25.05;;;14.68;;
63046;SDS011;62025;39.238;9.126;2023-02-22T04:55:12;29.85;;;15.55;;
63046;SDS011;62025;39.238;9.126;2023-02-22T04:57:38;26.75;;;14.60;;
63046;SDS011;62025;39.238;9.126;2023-02-22T05:00:04;27.10;;;15.32;;
63046;SDS011;62025;39.238;9.126;2023-02-22T05:02:33;31.08;;;15.80;;
63046;SDS011;62025;39.238;9.126;2023-02-22T05:04:59;28.65;;;14.88;;
63046;SDS011;62025;39.238;9.126;2023-02-22T05:07:25;28.42;;;14.23;;
63046;SDS011;62025;39.238;9.126;2023-02-22T05:09:51;25.13;;;13.68;;
63046;SDS011;62025;39.238;9.126;2023-02-22T05:12:17;26.77;;;14.85;;
63046;SDS011;62025;39.238;9.126;2023-02-22T05:14:43;24.15;;;13.88;;
63046;SDS011;62025;39.238;9.126;2023-02-22T05:17:09;22.17;;;13.52;;
63046;SDS011;62025;39.238;9.126;2023-02-22T05:19:35;23.70;;;14.25;;
63046;SDS011;62025;39.238;9.126;2023-02-22T05:22:01;22.83;;;13.65;;
63046;SDS011;62025;39.238;9.126;2023-02-22T05:24:27;21.65;;;13.25;;
63046;SDS011;62025;39.238;9.126;2023-02-22T05:26:53;24.02;;;13.10;;
63046;SDS011;62025;39.238;9.126;2023-02-22T05:29:19;22.30;;;13.15;;
63046;SDS011;62025;39.238;9.126;2023-02-22T05:31:45;23.77;;;13.30;;
63046;SDS011;62025;39.238;9.126;2023-02-22T05:34:11;21.27;;;12.73;;
63046;SDS011;62025;39.238;9.126;2023-02-22T05:36:38;22.40;;;13.52;;
63046;SDS011;62025;39.238;9.126;2023-02-22T05:39:04;22.05;;;13.80;;
63046;SDS011;62025;39.238;9.126;2023-02-22T05:41:30;21.52;;;12.73;;
63046;SDS011;62025;39.238;9.126;2023-02-22T05:43:56;24.63;;;13.77;;
63046;SDS011;62025;39.238;9.126;2023-02-22T05:46:22;22.25;;;13.68;;
63046;SDS011;62025;39.238;9.126;2023-02-22T05:48:48;27.42;;;14.77;;
63046;SDS011;62025;39.238;9.126;2023-02-22T05:51:14;26.33;;;15.30;;
63046;SDS011;62025;39.238;9.126;2023-02-22T05:53:40;27.92;;;15.00;;
63046;SDS011;62025;39.238;9.126;2023-02-22T05:56:06;31.23;;;15.68;;
63046;SDS011;62025;39.238;9.126;2023-02-22T05:58:32;32.38;;;16.98;;
63046;SDS011;62025;39.238;9.126;2023-02-22T06:00:58;30.17;;;16.50;;
63046;SDS011;62025;39.238;9.126;2023-02-22T06:03:24;30.08;;;15.40;;
63046;SDS011;62025;39.238;9.126;2023-02-22T06:05:50;27.63;;;15.23;;
63046;SDS011;62025;39.238;9.126;2023-02-22T06:08:16;26.35;;;13.23;;
63046;SDS011;62025;39.238;9.126;2023-02-22T06:10:43;23.42;;;12.73;;
63046;SDS011;62025;39.238;9.126;2023-02-22T06:13:09;24.92;;;13.63;;
63046;SDS011;62025;39.238;9.126;2023-02-22T06:15:35;24.52;;;14.45;;
63046;SDS011;62025;39.238;9.126;2023-02-22T06:18:01;24.25;;;14.07;;
63046;SDS011;62025;39.238;9.126;2023-02-22T06:20:27;24.42;;;13.93;;
63046;SDS011;62025;39.238;9.126;2023-02-22T06:22:54;25.05;;;14.57;;
63046;SDS011;62025;39.238;9.126;2023-02-22T06:25:24;29.75;;;14.80;;
63046;SDS011;62025;39.238;9.126;2023-02-22T06:27:55;22.95;;;13.93;;
63046;SDS011;62025;39.238;9.126;2023-02-22T06:30:23;25.27;;;14.32;;
63046;SDS011;62025;39.238;9.126;2023-02-22T06:32:50;24.60;;;15.07;;
63046;SDS011;62025;39.238;9.126;2023-02-22T06:35:16;29.15;;;15.48;;
63046;SDS011;62025;39.238;9.126;2023-02-22T06:37:42;28.77;;;16.52;;
63046;SDS011;62025;39.238;9.126;2023-02-22T06:40:08;35.50;;;17.95;;
63046;SDS011;62025;39.238;9.126;2023-02-22T06:42:36;35.35;;;18.15;;
63046;SDS011;62025;39.238;9.126;2023-02-22T06:45:03;33.50;;;18.08;;
63046;SDS011;62025;39.238;9.126;2023-02-22T06:47:29;31.42;;;18.08;;
63046;SDS011;62025;39.238;9.126;2023-02-22T06:49:56;29.40;;;17.27;;
63046;SDS011;62025;39.238;9.126;2023-02-22T06:52:25;34.35;;;18.33;;
63046;SDS011;62025;39.238;9.126;2023-02-22T06:54:51;34.78;;;18.70;;
63046;SDS011;62025;39.238;9.126;2023-02-22T06:57:17;34.83;;;18.33;;
63046;SDS011;62025;39.238;9.126;2023-02-22T06:59:43;35.40;;;18.63;;
63046;SDS011;62025;39.238;9.126;2023-02-22T07:02:13;36.08;;;18.98;;
63046;SDS011;62025;39.238;9.126;2023-02-22T07:04:39;35.15;;;17.98;;
63046;SDS011;62025;39.238;9.126;2023-02-22T07:07:05;38.92;;;19.27;;
63046;SDS011;62025;39.238;9.126;2023-02-22T07:09:31;35.28;;;18.15;;
63046;SDS011;62025;39.238;9.126;2023-02-22T07:11:57;35.97;;;18.05;;
63046;SDS011;62025;39.238;9.126;2023-02-22T07:14:23;38.47;;;17.98;;
63046;SDS011;62025;39.238;9.126;2023-02-22T07:16:49;37.15;;;18.40;;
63046;SDS011;62025;39.238;9.126;2023-02-22T07:19:15;34.38;;;16.58;;
63046;SDS011;62025;39.238;9.126;2023-02-22T07:21:41;37.08;;;17.42;;
63046;SDS011;62025;39.238;9.126;2023-02-22T07:24:07;37.80;;;18.20;;
63046;SDS011;62025;39.238;9.126;2023-02-22T07:26:39;35.83;;;17.60;;
63046;SDS011;62025;39.238;9.126;2023-02-22T07:29:06;36.67;;;17.63;;
63046;SDS011;62025;39.238;9.126;2023-02-22T07:31:38;40.05;;;19.05;;
63046;SDS011;62025;39.238;9.126;2023-02-22T07:34:04;36.95;;;17.33;;
63046;SDS011;62025;39.238;9.126;2023-02-22T07:36:30;41.22;;;18.85;;
63046;SDS011;62025;39.238;9.126;2023-02-22T07:38:56;39.47;;;17.35;;
63046;SDS011;62025;39.238;9.126;2023-02-22T07:41:22;33.75;;;18.08;;
63046;SDS011;62025;39.238;9.126;2023-02-22T07:43:49;32.47;;;15.80;;
63046;SDS011;62025;39.238;9.126;2023-02-22T07:46:16;26.63;;;12.45;;
63046;SDS011;62025;39.238;9.126;2023-02-22T07:48:41;39.17;;;12.57;;
63046;SDS011;62025;39.238;9.126;2023-02-22T07:51:07;26.83;;;13.30;;
63046;SDS011;62025;39.238;9.126;2023-02-22T07:53:34;25.48;;;12.02;;
63046;SDS011;62025;39.238;9.126;2023-02-22T07:56:01;25.45;;;12.52;;
63046;SDS011;62025;39.238;9.126;2023-02-22T07:58:29;22.83;;;11.00;;
63046;SDS011;62025;39.238;9.126;2023-02-22T08:00:58;28.13;;;12.07;;
63046;SDS011;62025;39.238;9.126;2023-02-22T08:03:26;23.58;;;11.07;;
63046;SDS011;62025;39.238;9.126;2023-02-22T08:05:55;29.45;;;11.90;;
63046;SDS011;62025;39.238;9.126;2023-02-22T08:10:50;22.42;;;11.13;;
63046;SDS011;62025;39.238;9.126;2023-02-22T08:13:18;23.48;;;11.77;;
63046;SDS011;62025;39.238;9.126;2023-02-22T08:18:16;26.75;;;12.80;;
63046;SDS011;62025;39.238;9.126;2023-02-22T08:20:43;25.95;;;13.10;;
63046;SDS011;62025;39.238;9.126;2023-02-22T08:23:12;30.17;;;14.65;;
63046;SDS011;62025;39.238;9.126;2023-02-22T08:25:40;29.73;;;13.95;;
63046;SDS011;62025;39.238;9.126;2023-02-22T08:28:08;21.80;;;11.20;;
63046;SDS011;62025;39.238;9.126;2023-02-22T08:30:40;26.70;;;12.32;;
63046;SDS011;62025;39.238;9.126;2023-02-22T08:33:11;28.85;;;14.05;;
63046;SDS011;62025;39.238;9.126;2023-02-22T08:35:41;31.73;;;14.77;;
63046;SDS011;62025;39.238;9.126;2023-02-22T08:38:14;37.22;;;15.00;;
63046;SDS011;62025;39.238;9.126;2023-02-22T08:40:47;31.70;;;14.45;;
63046;SDS011;62025;39.238;9.126;2023-02-22T08:43:14;37.10;;;14.68;;
63046;SDS011;62025;39.238;9.126;2023-02-22T08:45:40;27.38;;;14.70;;
63046;SDS011;62025;39.238;9.126;2023-02-22T08:48:09;31.23;;;14.43;;
63046;SDS011;62025;39.238;9.126;2023-02-22T08:50:35;35.85;;;15.75;;
63046;SDS011;62025;39.238;9.126;2023-02-22T08:53:03;30.83;;;14.68;;
63046;SDS011;62025;39.238;9.126;2023-02-22T08:55:32;32.30;;;15.52;;
63046;SDS011;62025;39.238;9.126;2023-02-22T08:58:01;32.83;;;15.38;;
63046;SDS011;62025;39.238;9.126;2023-02-22T09:00:29;34.67;;;15.02;;
63046;SDS011;62025;39.238;9.126;2023-02-22T09:02:58;30.98;;;14.25;;
63046;SDS011;62025;39.238;9.126;2023-02-22T09:05:28;26.02;;;13.88;;
63046;SDS011;62025;39.238;9.126;2023-02-22T09:07:54;25.20;;;13.52;;
63046;SDS011;62025;39.238;9.126;2023-02-22T09:10:22;25.20;;;13.48;;
63046;SDS011;62025;39.238;9.126;2023-02-22T09:12:51;25.58;;;14.05;;
63046;SDS011;62025;39.238;9.126;2023-02-22T09:15:21;26.38;;;15.07;;
63046;SDS011;62025;39.238;9.126;2023-02-22T09:17:49;24.35;;;14.77;;
63046;SDS011;62025;39.238;9.126;2023-02-22T09:20:16;23.10;;;14.60;;
63046;SDS011;62025;39.238;9.126;2023-02-22T09:22:45;26.88;;;15.65;;
63046;SDS011;62025;39.238;9.126;2023-02-22T09:25:13;23.73;;;15.68;;
63046;SDS011;62025;39.238;9.126;2023-02-22T09:27:40;22.70;;;14.57;;
63046;SDS011;62025;39.238;9.126;2023-02-22T09:30:08;21.40;;;14.43;;
63046;SDS011;62025;39.238;9.126;2023-02-22T09:32:42;22.92;;;14.77;;
63046;SDS011;62025;39.238;9.126;2023-02-22T09:35:07;22.77;;;13.48;;
63046;SDS011;62025;39.238;9.126;2023-02-22T09:37:33;23.33;;;14.43;;
63046;SDS011;62025;39.238;9.126;2023-02-22T09:39:59;20.75;;;14.02;;
63046;SDS011;62025;39.238;9.126;2023-02-22T09:42:27;17.38;;;13.07;;
63046;SDS011;62025;39.238;9.126;2023-02-22T09:45:02;19.00;;;12.38;;
63046;SDS011;62025;39.238;9.126;2023-02-22T09:47:49;18.77;;;12.95;;
63046;SDS011;62025;39.238;9.126;2023-02-22T09:50:22;21.77;;;12.85;;
63046;SDS011;62025;39.238;9.126;2023-02-22T09:58:35;17.70;;;12.40;;
63046;SDS011;62025;39.238;9.126;2023-02-22T10:06:37;16.25;;;10.98;;
63046;SDS011;62025;39.238;9.126;2023-02-22T10:09:08;19.10;;;10.85;;
63046;SDS011;62025;39.238;9.126;2023-02-22T10:11:43;17.40;;;10.90;;
63046;SDS011;62025;39.238;9.126;2023-02-22T10:17:07;16.15;;;10.40;;
63046;SDS011;62025;39.238;9.126;2023-02-22T10:23:02;15.05;;;9.45;;
63046;SDS011;62025;39.238;9.126;2023-02-22T10:25:51;15.70;;;10.32;;
63046;SDS011;62025;39.238;9.126;2023-02-22T10:28:52;16.15;;;9.63;;
63046;SDS011;62025;39.238;9.126;2023-02-22T10:31:35;12.90;;;9.63;;
63046;SDS011;62025;39.238;9.126;2023-02-22T10:34:16;12.05;;;9.00;;
63046;SDS011;62025;39.238;9.126;2023-02-22T10:36:49;13.38;;;8.85;;
63046;SDS011;62025;39.238;9.126;2023-02-22T10:39:30;13.45;;;8.88;;
63046;SDS011;62025;39.238;9.126;2023-02-22T10:42:02;11.05;;;8.02;;
63046;SDS011;62025;39.238;9.126;2023-02-22T10:44:32;12.75;;;8.52;;
63046;SDS011;62025;39.238;9.126;2023-02-22T10:47:04;12.55;;;8.15;;
63046;SDS011;62025;39.238;9.126;2023-02-22T10:49:34;14.80;;;8.30;;
63046;SDS011;62025;39.238;9.126;2023-02-22T10:52:11;12.50;;;8.32;;
63046;SDS011;62025;39.238;9.126;2023-02-22T10:54:54;11.75;;;8.00;;
63046;SDS011;62025;39.238;9.126;2023-02-22T10:57:28;11.57;;;7.25;;
63046;SDS011;62025;39.238;9.126;2023-02-22T11:00:18;8.02;;;6.65;;
63046;SDS011;62025;39.238;9.126;2023-02-22T11:03:17;9.93;;;6.88;;
63046;SDS011;62025;39.238;9.126;2023-02-22T11:05:46;9.95;;;6.63;;
63046;SDS011;62025;39.238;9.126;2023-02-22T11:10:59;9.73;;;7.10;;
63046;SDS011;62025;39.238;9.126;2023-02-22T11:13:31;9.95;;;7.53;;
63046;SDS011;62025;39.238;9.126;2023-02-22T11:21:48;9.55;;;6.95;;
63046;SDS011;62025;39.238;9.126;2023-02-22T11:24:19;14.70;;;7.80;;
63046;SDS011;62025;39.238;9.126;2023-02-22T11:26:55;8.00;;;6.80;;
63046;SDS011;62025;39.238;9.126;2023-02-22T11:29:35;8.82;;;6.75;;
63046;SDS011;62025;39.238;9.126;2023-02-22T11:32:12;12.00;;;7.25;;
63046;SDS011;62025;39.238;9.126;2023-02-22T11:34:45;9.40;;;7.25;;
63046;SDS011;62025;39.238;9.126;2023-02-22T11:40:05;10.32;;;7.13;;
63046;SDS011;62025;39.238;9.126;2023-02-22T11:42:42;9.35;;;7.45;;
63046;SDS011;62025;39.238;9.126;2023-02-22T11:45:15;10.93;;;7.25;;
63046;SDS011;62025;39.238;9.126;2023-02-22T11:47:53;13.20;;;7.28;;
63046;SDS011;62025;39.238;9.126;2023-02-22T11:52:55;14.02;;;7.85;;
63046;SDS011;62025;39.238;9.126;2023-02-22T11:56:20;10.25;;;7.63;;
63046;SDS011;62025;39.238;9.126;2023-02-22T12:15:57;9.95;;;7.10;;
63046;SDS011;62025;39.238;9.126;2023-02-22T12:19:18;9.23;;;6.75;;
63046;SDS011;62025;39.238;9.126;2023-02-22T12:21:58;8.30;;;6.43;;
63046;SDS011;62025;39.238;9.126;2023-02-22T12:24:33;9.68;;;6.93;;
63046;SDS011;62025;39.238;9.126;2023-02-22T12:27:08;9.20;;;7.13;;
63046;SDS011;62025;39.238;9.126;2023-02-22T12:29:42;12.65;;;6.40;;
63046;SDS011;62025;39.238;9.126;2023-02-22T12:35:50;9.40;;;6.82;;
63046;SDS011;62025;39.238;9.126;2023-02-22T12:41:06;12.05;;;6.72;;
63046;SDS011;62025;39.238;9.126;2023-02-22T12:43:45;7.88;;;6.30;;
63046;SDS011;62025;39.238;9.126;2023-02-22T12:46:34;6.97;;;6.00;;
63046;SDS011;62025;39.238;9.126;2023-02-22T12:49:13;11.45;;;6.65;;
63046;SDS011;62025;39.238;9.126;2023-02-22T13:00:15;8.20;;;6.75;;
63046;SDS011;62025;39.238;9.126;2023-02-22T13:03:00;11.55;;;6.47;;
63046;SDS011;62025;39.238;9.126;2023-02-22T13:11:42;9.48;;;6.22;;
63046;SDS011;62025;39.238;9.126;2023-02-22T13:20:28;8.25;;;5.88;;
63046;SDS011;62025;39.238;9.126;2023-02-22T13:23:07;12.50;;;6.22;;
63046;SDS011;62025;39.238;9.126;2023-02-22T13:28:31;7.72;;;6.07;;
63046;SDS011;62025;39.238;9.126;2023-02-22T13:39:36;8.33;;;5.80;;
63046;SDS011;62025;39.238;9.126;2023-02-22T13:53:53;8.00;;;6.03;;
63046;SDS011;62025;39.238;9.126;2023-02-22T13:56:23;7.88;;;5.75;;
63046;SDS011;62025;39.238;9.126;2023-02-22T13:58:51;7.53;;;5.47;;
63046;SDS011;62025;39.238;9.126;2023-02-22T14:06:56;7.05;;;5.70;;
63046;SDS011;62025;39.238;9.126;2023-02-22T14:09:46;13.75;;;6.22;;
63046;SDS011;62025;39.238;9.126;2023-02-22T14:17:42;8.15;;;5.82;;
63046;SDS011;62025;39.238;9.126;2023-02-22T14:22:42;7.75;;;6.55;;
63046;SDS011;62025;39.238;9.126;2023-02-22T14:28:08;9.20;;;6.57;;
63046;SDS011;62025;39.238;9.126;2023-02-22T14:31:20;9.63;;;5.93;;
63046;SDS011;62025;39.238;9.126;2023-02-22T14:34:03;7.90;;;6.93;;
63046;SDS011;62025;39.238;9.126;2023-02-22T14:36:38;9.65;;;6.30;;
63046;SDS011;62025;39.238;9.126;2023-02-22T14:42:17;10.05;;;6.45;;
63046;SDS011;62025;39.238;9.126;2023-02-22T14:47:56;8.80;;;6.22;;
63046;SDS011;62025;39.238;9.126;2023-02-22T14:57:20;14.50;;;6.47;;
63046;SDS011;62025;39.238;9.126;2023-02-22T15:02:47;14.43;;;7.15;;
63046;SDS011;62025;39.238;9.126;2023-02-22T15:05:17;10.55;;;6.60;;
63046;SDS011;62025;39.238;9.126;2023-02-22T15:07:52;9.90;;;6.55;;
63046;SDS011;62025;39.238;9.126;2023-02-22T15:10:45;8.90;;;6.07;;
63046;SDS011;62025;39.238;9.126;2023-02-22T15:13:23;10.77;;;6.68;;
63046;SDS011;62025;39.238;9.126;2023-02-22T15:18:30;8.13;;;6.50;;
63046;SDS011;62025;39.238;9.126;2023-02-22T15:21:02;8.90;;;6.22;;
63046;SDS011;62025;39.238;9.126;2023-02-22T15:23:39;7.45;;;6.00;;
63046;SDS011;62025;39.238;9.126;2023-02-22T15:26:24;8.50;;;7.32;;
63046;SDS011;62025;39.238;9.126;2023-02-22T15:29:15;10.73;;;6.13;;
63046;SDS011;62025;39.238;9.126;2023-02-22T15:31:47;8.75;;;6.70;;
63046;SDS011;62025;39.238;9.126;2023-02-22T15:36:40;8.60;;;6.10;;
63046;SDS011;62025;39.238;9.126;2023-02-22T15:39:18;9.38;;;6.90;;
63046;SDS011;62025;39.238;9.126;2023-02-22T15:42:07;8.40;;;6.40;;
63046;SDS011;62025;39.238;9.126;2023-02-22T15:44:41;8.60;;;6.18;;
63046;SDS011;62025;39.238;9.126;2023-02-22T15:47:18;8.00;;;6.75;;
63046;SDS011;62025;39.238;9.126;2023-02-22T15:53:33;8.68;;;7.07;;
63046;SDS011;62025;39.238;9.126;2023-02-22T15:56:08;10.18;;;6.55;;
63046;SDS011;62025;39.238;9.126;2023-02-22T15:58:38;9.93;;;7.38;;
63046;SDS011;62025;39.238;9.126;2023-02-22T16:01:06;9.32;;;6.90;;
63046;SDS011;62025;39.238;9.126;2023-02-22T16:03:52;8.48;;;7.57;;
63046;SDS011;62025;39.238;9.126;2023-02-22T16:06:29;10.45;;;7.15;;
63046;SDS011;62025;39.238;9.126;2023-02-22T16:09:09;11.98;;;7.18;;
63046;SDS011;62025;39.238;9.126;2023-02-22T16:11:43;10.20;;;7.70;;
63046;SDS011;62025;39.238;9.126;2023-02-22T16:17:44;10.15;;;7.05;;
63046;SDS011;62025;39.238;9.126;2023-02-22T16:20:44;11.00;;;7.83;;
63046;SDS011;62025;39.238;9.126;2023-02-22T16:22:46;9.85;;;7.25;;
63046;SDS011;62025;39.238;9.126;2023-02-22T16:27:43;13.85;;;8.50;;
63046;SDS011;62025;39.238;9.126;2023-02-22T16:32:47;13.02;;;7.57;;
63046;SDS011;62025;39.238;9.126;2023-02-22T16:35:14;11.52;;;8.05;;
63046;SDS011;62025;39.238;9.126;2023-02-22T16:37:47;10.35;;;8.27;;
63046;SDS011;62025;39.238;9.126;2023-02-22T16:40:22;10.13;;;7.93;;
63046;SDS011;62025;39.238;9.126;2023-02-22T16:42:49;9.95;;;7.13;;
63046;SDS011;62025;39.238;9.126;2023-02-22T16:45:16;10.63;;;7.13;;
63046;SDS011;62025;39.238;9.126;2023-02-22T16:47:44;10.77;;;7.80;;
63046;SDS011;62025;39.238;9.126;2023-02-22T16:50:11;12.80;;;7.70;;
63046;SDS011;62025;39.238;9.126;2023-02-22T16:52:38;11.75;;;8.43;;
63046;SDS011;62025;39.238;9.126;2023-02-22T16:55:05;12.40;;;8.13;;
63046;SDS011;62025;39.238;9.126;2023-02-22T16:57:37;10.40;;;8.00;;
63046;SDS011;62025;39.238;9.126;2023-02-22T17:00:04;11.07;;;7.93;;
63046;SDS011;62025;39.238;9.126;2023-02-22T17:02:37;11.32;;;7.90;;
63046;SDS011;62025;39.238;9.126;2023-02-22T17:05:04;13.70;;;8.48;;
63046;SDS011;62025;39.238;9.126;2023-02-22T17:07:32;10.30;;;8.27;;
63046;SDS011;62025;39.238;9.126;2023-02-22T17:09:58;9.73;;;8.70;;
63046;SDS011;62025;39.238;9.126;2023-02-22T17:12:25;12.80;;;9.52;;
63046;SDS011;62025;39.238;9.126;2023-02-22T17:14:52;12.55;;;8.35;;
63046;SDS011;62025;39.238;9.126;2023-02-22T17:17:18;8.68;;;7.63;;
63046;SDS011;62025;39.238;9.126;2023-02-22T17:19:44;9.23;;;8.27;;
63046;SDS011;62025;39.238;9.126;2023-02-22T17:22:15;13.23;;;8.88;;
63046;SDS011;62025;39.238;9.126;2023-02-22T17:24:44;10.02;;;8.20;;
63046;SDS011;62025;39.238;9.126;2023-02-22T17:27:11;10.18;;;8.15;;
63046;SDS011;62025;39.238;9.126;2023-02-22T17:29:37;10.23;;;7.43;;
63046;SDS011;62025;39.238;9.126;2023-02-22T17:32:05;9.93;;;7.38;;
63046;SDS011;62025;39.238;9.126;2023-02-22T17:34:32;9.90;;;7.28;;
63046;SDS011;62025;39.238;9.126;2023-02-22T17:36:58;11.02;;;7.78;;
63046;SDS011;62025;39.238;9.126;2023-02-22T17:39:24;9.00;;;7.70;;
63046;SDS011;62025;39.238;9.126;2023-02-22T17:41:51;10.85;;;8.63;;
63046;SDS011;62025;39.238;9.126;2023-02-22T17:44:22;10.98;;;8.20;;
63046;SDS011;62025;39.238;9.126;2023-02-22T17:46:50;11.77;;;8.45;;
63046;SDS011;62025;39.238;9.126;2023-02-22T17:49:17;12.38;;;7.95;;
63046;SDS011;62025;39.238;9.126;2023-02-22T17:51:43;10.75;;;7.80;;
63046;SDS011;62025;39.238;9.126;2023-02-22T17:54:14;10.55;;;8.43;;
63046;SDS011;62025;39.238;9.126;2023-02-22T17:56:41;14.15;;;8.27;;
63046;SDS011;62025;39.238;9.126;2023-02-22T17:59:08;13.30;;;7.45;;
63046;SDS011;62025;39.238;9.126;2023-02-22T18:01:34;12.77;;;8.95;;